sensor_id;sensor_type;location;lat;lon;timestamp;P1;durP1;ratioP1;P2;durP2;ratioP2
19006;SDS011;9636;47.382;8.480;2023-05-07T00:00:04;1.70;;;1.60;;
19006;SDS011;9636;47.382;8.480;2023-05-07T00:02:32;1.70;;;1.60;;
19006;SDS011;9636;47.382;8.480;2023-05-07T00:04:59;1.65;;;1.55;;
19006;SDS011;9636;47.382;8.480;2023-05-07T00:07:28;2.28;;;1.70;;
19006;SDS011;9636;47.382;8.480;2023-05-07T00:09:55;1.73;;;1.63;;
19006;SDS011;9636;47.382;8.480;2023-05-07T00:12:22;1.70;;;1.60;;
19006;SDS011;9636;47.382;8.480;2023-05-07T00:14:48;1.60;;;1.50;;
19006;SDS011;9636;47.382;8.480;2023-05-07T00:17:15;1.70;;;1.60;;
19006;SDS011;9636;47.382;8.480;2023-05-07T00:19:42;2.00;;;1.90;;
19006;SDS011;9636;47.382;8.480;2023-05-07T00:22:09;1.67;;;1.58;;
19006;SDS011;9636;47.382;8.480;2023-05-07T00:24:37;1.60;;;1.50;;
19006;SDS011;9636;47.382;8.480;2023-05-07T00:27:04;1.77;;;1.67;;
19006;SDS011;9636;47.382;8.480;2023-05-07T00:29:30;1.70;;;1.60;;
19006;SDS011;9636;47.382;8.480;2023-05-07T00:31:57;1.98;;;1.88;;
19006;SDS011;9636;47.382;8.480;2023-05-07T00:34:24;2.00;;;1.90;;
19006;SDS011;9636;47.382;8.480;2023-05-07T00:36:51;1.88;;;1.77;;
19006;SDS011;9636;47.382;8.480;2023-05-07T00:39:18;1.77;;;1.67;;
19006;SDS011;9636;47.382;8.480;2023-05-07T00:41:46;1.85;;;1.75;;
19006;SDS011;9636;47.382;8.480;2023-05-07T00:44:13;1.75;;;1.65;;
19006;SDS011;9636;47.382;8.480;2023-05-07T00:46:40;1.80;;;1.70;;
19006;SDS011;9636;47.382;8.480;2023-05-07T00:49:07;2.00;;;1.50;;
19006;SDS011;9636;47.382;8.480;2023-05-07T00:51:34;1.70;;;1.60;;
19006;SDS011;9636;47.382;8.480;2023-05-07T00:54:01;1.65;;;1.55;;
19006;SDS011;9636;47.382;8.480;2023-05-07T00:56:28;1.50;;;1.40;;
19006;SDS011;9636;47.382;8.480;2023-05-07T00:58:57;1.80;;;1.70;;
19006;SDS011;9636;47.382;8.480;2023-05-07T01:01:24;1.70;;;1.60;;
19006;SDS011;9636;47.382;8.480;2023-05-07T01:03:51;1.70;;;1.60;;
19006;SDS011;9636;47.382;8.480;2023-05-07T01:06:18;1.75;;;1.65;;
19006;SDS011;9636;47.382;8.480;2023-05-07T01:08:47;1.77;;;1.67;;
19006;SDS011;9636;47.382;8.480;2023-05-07T01:11:15;1.60;;;1.50;;
19006;SDS011;9636;47.382;8.480;2023-05-07T01:13:44;1.65;;;1.55;;
19006;SDS011;9636;47.382;8.480;2023-05-07T01:16:13;1.70;;;1.60;;
19006;SDS011;9636;47.382;8.480;2023-05-07T01:18:39;1.50;;;1.40;;
19006;SDS011;9636;47.382;8.480;2023-05-07T01:21:06;1.80;;;1.70;;
19006;SDS011;9636;47.382;8.480;2023-05-07T01:23:38;1.60;;;1.50;;
19006;SDS011;9636;47.382;8.480;2023-05-07T01:26:05;1.80;;;1.70;;
19006;SDS011;9636;47.382;8.480;2023-05-07T01:28:32;1.58;;;1.48;;
19006;SDS011;9636;47.382;8.480;2023-05-07T01:31:00;1.73;;;1.63;;
19006;SDS011;9636;47.382;8.480;2023-05-07T01:33:29;1.60;;;1.50;;
19006;SDS011;9636;47.382;8.480;2023-05-07T01:35:57;1.48;;;1.38;;
19006;SDS011;9636;47.382;8.480;2023-05-07T01:38:27;1.85;;;1.75;;
19006;SDS011;9636;47.382;8.480;2023-05-07T01:40:58;1.75;;;1.65;;
19006;SDS011;9636;47.382;8.480;2023-05-07T01:43:25;1.63;;;1.52;;
19006;SDS011;9636;47.382;8.480;2023-05-07T01:45:52;1.63;;;1.52;;
19006;SDS011;9636;47.382;8.480;2023-05-07T01:48:20;1.80;;;1.70;;
19006;SDS011;9636;47.382;8.480;2023-05-07T01:50:47;1.40;;;1.30;;
19006;SDS011;9636;47.382;8.480;2023-05-07T01:53:14;1.63;;;1.52;;
19006;SDS011;9636;47.382;8.480;2023-05-07T01:55:41;1.50;;;1.40;;
19006;SDS011;9636;47.382;8.480;2023-05-07T01:58:09;1.55;;;1.45;;
19006;SDS011;9636;47.382;8.480;2023-05-07T02:00:36;1.85;;;1.60;;
19006;SDS011;9636;47.382;8.480;2023-05-07T02:03:03;1.63;;;1.52;;
19006;SDS011;9636;47.382;8.480;2023-05-07T02:05:30;1.52;;;1.42;;
19006;SDS011;9636;47.382;8.480;2023-05-07T02:07:57;1.90;;;1.70;;
19006;SDS011;9636;47.382;8.480;2023-05-07T02:10:24;1.60;;;1.50;;
19006;SDS011;9636;47.382;8.480;2023-05-07T02:12:50;1.40;;;1.30;;
19006;SDS011;9636;47.382;8.480;2023-05-07T02:15:18;1.50;;;1.40;;
19006;SDS011;9636;47.382;8.480;2023-05-07T02:17:58;1.70;;;1.60;;
19006;SDS011;9636;47.382;8.480;2023-05-07T02:20:26;1.70;;;1.60;;
19006;SDS011;9636;47.382;8.480;2023-05-07T02:22:53;1.67;;;1.58;;
19006;SDS011;9636;47.382;8.480;2023-05-07T02:25:20;1.42;;;1.33;;
19006;SDS011;9636;47.382;8.480;2023-05-07T02:27:47;1.33;;;1.33;;
19006;SDS011;9636;47.382;8.480;2023-05-07T02:30:13;1.70;;;1.60;;
19006;SDS011;9636;47.382;8.480;2023-05-07T02:32:42;1.55;;;1.45;;
19006;SDS011;9636;47.382;8.480;2023-05-07T02:35:09;1.65;;;1.55;;
19006;SDS011;9636;47.382;8.480;2023-05-07T02:37:36;1.60;;;1.50;;
19006;SDS011;9636;47.382;8.480;2023-05-07T02:40:03;2.03;;;1.70;;
19006;SDS011;9636;47.382;8.480;2023-05-07T02:42:30;1.45;;;1.35;;
19006;SDS011;9636;47.382;8.480;2023-05-07T02:44:57;1.55;;;1.45;;
19006;SDS011;9636;47.382;8.480;2023-05-07T02:47:24;1.60;;;1.50;;
19006;SDS011;9636;47.382;8.480;2023-05-07T02:49:54;1.67;;;1.58;;
19006;SDS011;9636;47.382;8.480;2023-05-07T02:52:21;1.98;;;1.30;;
19006;SDS011;9636;47.382;8.480;2023-05-07T02:54:48;1.50;;;1.40;;
19006;SDS011;9636;47.382;8.480;2023-05-07T02:57:15;1.60;;;1.50;;
19006;SDS011;9636;47.382;8.480;2023-05-07T02:59:42;1.40;;;1.30;;
19006;SDS011;9636;47.382;8.480;2023-05-07T03:02:09;1.30;;;1.30;;
19006;SDS011;9636;47.382;8.480;2023-05-07T03:04:36;1.63;;;1.52;;
19006;SDS011;9636;47.382;8.480;2023-05-07T03:07:04;1.95;;;1.63;;
19006;SDS011;9636;47.382;8.480;2023-05-07T03:09:31;1.55;;;1.42;;
19006;SDS011;9636;47.382;8.480;2023-05-07T03:11:58;1.80;;;1.70;;
19006;SDS011;9636;47.382;8.480;2023-05-07T03:14:24;1.65;;;1.55;;
19006;SDS011;9636;47.382;8.480;2023-05-07T03:16:51;1.60;;;1.50;;
19006;SDS011;9636;47.382;8.480;2023-05-07T03:19:18;1.27;;;1.20;;
19006;SDS011;9636;47.382;8.480;2023-05-07T03:21:45;1.55;;;1.45;;
19006;SDS011;9636;47.382;8.480;2023-05-07T03:24:13;2.33;;;1.40;;
19006;SDS011;9636;47.382;8.480;2023-05-07T03:26:39;1.33;;;1.23;;
19006;SDS011;9636;47.382;8.480;2023-05-07T03:29:06;1.47;;;1.37;;
19006;SDS011;9636;47.382;8.480;2023-05-07T03:31:33;1.50;;;1.40;;
19006;SDS011;9636;47.382;8.480;2023-05-07T03:34:00;1.50;;;1.40;;
19006;SDS011;9636;47.382;8.480;2023-05-07T03:36:27;1.83;;;1.50;;
19006;SDS011;9636;47.382;8.480;2023-05-07T03:38:54;1.50;;;1.40;;
19006;SDS011;9636;47.382;8.480;2023-05-07T03:41:22;1.40;;;1.30;;
19006;SDS011;9636;47.382;8.480;2023-05-07T03:43:49;1.48;;;1.38;;
19006;SDS011;9636;47.382;8.480;2023-05-07T03:46:15;1.60;;;1.50;;
19006;SDS011;9636;47.382;8.480;2023-05-07T03:48:42;1.90;;;1.50;;
19006;SDS011;9636;47.382;8.480;2023-05-07T03:51:09;1.73;;;1.40;;
19006;SDS011;9636;47.382;8.480;2023-05-07T03:53:36;1.23;;;1.23;;
19006;SDS011;9636;47.382;8.480;2023-05-07T03:56:03;1.53;;;1.43;;
19006;SDS011;9636;47.382;8.480;2023-05-07T03:58:31;1.48;;;1.38;;
19006;SDS011;9636;47.382;8.480;2023-05-07T04:00:58;1.50;;;1.40;;
19006;SDS011;9636;47.382;8.480;2023-05-07T04:03:26;1.10;;;1.10;;
19006;SDS011;9636;47.382;8.480;2023-05-07T04:05:52;1.60;;;1.50;;
19006;SDS011;9636;47.382;8.480;2023-05-07T04:08:19;1.37;;;1.30;;
19006;SDS011;9636;47.382;8.480;2023-05-07T04:10:46;2.03;;;1.40;;
19006;SDS011;9636;47.382;8.480;2023-05-07T04:13:13;1.50;;;1.40;;
19006;SDS011;9636;47.382;8.480;2023-05-07T04:15:41;1.40;;;1.30;;
19006;SDS011;9636;47.382;8.480;2023-05-07T04:18:08;1.50;;;1.40;;
19006;SDS011;9636;47.382;8.480;2023-05-07T04:20:34;1.30;;;1.30;;
19006;SDS011;9636;47.382;8.480;2023-05-07T04:23:02;1.30;;;1.20;;
19006;SDS011;9636;47.382;8.480;2023-05-07T04:25:29;1.58;;;1.40;;
19006;SDS011;9636;47.382;8.480;2023-05-07T04:27:56;1.25;;;1.25;;
19006;SDS011;9636;47.382;8.480;2023-05-07T04:30:22;1.30;;;1.20;;
19006;SDS011;9636;47.382;8.480;2023-05-07T04:32:51;1.50;;;1.40;;
19006;SDS011;9636;47.382;8.480;2023-05-07T04:35:18;1.30;;;1.23;;
19006;SDS011;9636;47.382;8.480;2023-05-07T04:37:45;1.38;;;1.25;;
19006;SDS011;9636;47.382;8.480;2023-05-07T04:40:12;1.20;;;1.20;;
19006;SDS011;9636;47.382;8.480;2023-05-07T04:42:39;1.20;;;1.20;;
19006;SDS011;9636;47.382;8.480;2023-05-07T04:45:06;1.40;;;1.30;;
19006;SDS011;9636;47.382;8.480;2023-05-07T04:47:35;1.35;;;1.25;;
19006;SDS011;9636;47.382;8.480;2023-05-07T04:50:03;1.58;;;1.48;;
19006;SDS011;9636;47.382;8.480;2023-05-07T04:52:31;1.30;;;1.20;;
19006;SDS011;9636;47.382;8.480;2023-05-07T04:54:58;1.35;;;1.30;;
19006;SDS011;9636;47.382;8.480;2023-05-07T04:57:26;1.27;;;1.17;;
19006;SDS011;9636;47.382;8.480;2023-05-07T04:59:53;1.50;;;1.40;;
19006;SDS011;9636;47.382;8.480;2023-05-07T05:02:20;1.45;;;1.35;;
19006;SDS011;9636;47.382;8.480;2023-05-07T05:04:47;1.50;;;1.40;;
19006;SDS011;9636;47.382;8.480;2023-05-07T05:07:15;1.60;;;1.50;;
19006;SDS011;9636;47.382;8.480;2023-05-07T05:09:42;1.58;;;1.48;;
19006;SDS011;9636;47.382;8.480;2023-05-07T05:12:09;1.67;;;1.58;;
19006;SDS011;9636;47.382;8.480;2023-05-07T05:14:36;1.20;;;1.20;;
19006;SDS011;9636;47.382;8.480;2023-05-07T05:17:03;1.20;;;1.20;;
19006;SDS011;9636;47.382;8.480;2023-05-07T05:19:30;1.40;;;1.30;;
19006;SDS011;9636;47.382;8.480;2023-05-07T05:21:57;1.45;;;1.35;;
19006;SDS011;9636;47.382;8.480;2023-05-07T05:24:25;1.35;;;1.25;;
19006;SDS011;9636;47.382;8.480;2023-05-07T05:26:52;1.30;;;1.20;;
19006;SDS011;9636;47.382;8.480;2023-05-07T05:29:19;1.15;;;1.10;;
19006;SDS011;9636;47.382;8.480;2023-05-07T05:31:46;1.55;;;1.45;;
19006;SDS011;9636;47.382;8.480;2023-05-07T05:34:13;1.15;;;1.10;;
19006;SDS011;9636;47.382;8.480;2023-05-07T05:36:40;1.40;;;1.30;;
19006;SDS011;9636;47.382;8.480;2023-05-07T05:39:07;1.30;;;1.20;;
19006;SDS011;9636;47.382;8.480;2023-05-07T05:41:35;1.40;;;1.30;;
19006;SDS011;9636;47.382;8.480;2023-05-07T05:44:02;1.10;;;1.10;;
19006;SDS011;9636;47.382;8.480;2023-05-07T05:46:29;1.23;;;1.00;;
19006;SDS011;9636;47.382;8.480;2023-05-07T05:48:56;1.25;;;1.15;;
19006;SDS011;9636;47.382;8.480;2023-05-07T05:51:23;1.13;;;1.10;;
19006;SDS011;9636;47.382;8.480;2023-05-07T05:53:50;1.30;;;1.20;;
19006;SDS011;9636;47.382;8.480;2023-05-07T05:56:16;1.23;;;1.15;;
19006;SDS011;9636;47.382;8.480;2023-05-07T05:58:45;1.10;;;1.10;;
19006;SDS011;9636;47.382;8.480;2023-05-07T06:01:12;1.40;;;1.30;;
19006;SDS011;9636;47.382;8.480;2023-05-07T06:03:39;1.33;;;1.27;;
19006;SDS011;9636;47.382;8.480;2023-05-07T06:06:05;1.10;;;1.10;;
19006;SDS011;9636;47.382;8.480;2023-05-07T06:08:32;1.25;;;1.15;;
19006;SDS011;9636;47.382;8.480;2023-05-07T06:10:59;1.10;;;1.10;;
19006;SDS011;9636;47.382;8.480;2023-05-07T06:13:27;1.30;;;1.20;;
19006;SDS011;9636;47.382;8.480;2023-05-07T06:15:56;1.15;;;1.05;;
19006;SDS011;9636;47.382;8.480;2023-05-07T06:18:22;1.25;;;1.15;;
19006;SDS011;9636;47.382;8.480;2023-05-07T06:20:50;1.17;;;1.10;;
19006;SDS011;9636;47.382;8.480;2023-05-07T06:23:17;1.30;;;1.25;;
19006;SDS011;9636;47.382;8.480;2023-05-07T06:25:47;1.40;;;1.30;;
19006;SDS011;9636;47.382;8.480;2023-05-07T06:28:14;1.25;;;1.20;;
19006;SDS011;9636;47.382;8.480;2023-05-07T06:30:41;1.23;;;1.20;;
19006;SDS011;9636;47.382;8.480;2023-05-07T06:33:09;3.20;;;1.27;;
19006;SDS011;9636;47.382;8.480;2023-05-07T06:35:36;4.13;;;1.20;;
19006;SDS011;9636;47.382;8.480;2023-05-07T06:38:03;3.88;;;1.60;;
19006;SDS011;9636;47.382;8.480;2023-05-07T06:40:30;1.50;;;1.40;;
19006;SDS011;9636;47.382;8.480;2023-05-07T06:42:57;1.42;;;1.20;;
19006;SDS011;9636;47.382;8.480;2023-05-07T06:45:23;1.92;;;1.27;;
19006;SDS011;9636;47.382;8.480;2023-05-07T06:47:50;1.65;;;1.08;;
19006;SDS011;9636;47.382;8.480;2023-05-07T06:50:18;1.75;;;1.30;;
19006;SDS011;9636;47.382;8.480;2023-05-07T06:52:46;1.67;;;1.00;;
19006;SDS011;9636;47.382;8.480;2023-05-07T06:55:13;2.65;;;1.30;;
19006;SDS011;9636;47.382;8.480;2023-05-07T06:57:40;1.20;;;1.15;;
19006;SDS011;9636;47.382;8.480;2023-05-07T07:00:07;1.67;;;1.42;;
19006;SDS011;9636;47.382;8.480;2023-05-07T07:02:34;1.30;;;1.20;;
19006;SDS011;9636;47.382;8.480;2023-05-07T07:05:02;1.40;;;1.30;;
19006;SDS011;9636;47.382;8.480;2023-05-07T07:07:31;1.63;;;1.08;;
19006;SDS011;9636;47.382;8.480;2023-05-07T07:09:58;1.30;;;1.20;;
19006;SDS011;9636;47.382;8.480;2023-05-07T07:12:24;2.63;;;1.27;;
19006;SDS011;9636;47.382;8.480;2023-05-07T07:14:51;1.17;;;1.10;;
19006;SDS011;9636;47.382;8.480;2023-05-07T07:17:18;1.02;;;1.00;;
19006;SDS011;9636;47.382;8.480;2023-05-07T07:19:45;1.10;;;1.10;;
19006;SDS011;9636;47.382;8.480;2023-05-07T07:22:11;1.38;;;1.27;;
19006;SDS011;9636;47.382;8.480;2023-05-07T07:24:39;1.40;;;1.30;;
19006;SDS011;9636;47.382;8.480;2023-05-07T07:27:06;1.10;;;1.10;;
19006;SDS011;9636;47.382;8.480;2023-05-07T07:29:33;1.30;;;1.20;;
19006;SDS011;9636;47.382;8.480;2023-05-07T07:32:00;2.00;;;1.20;;
19006;SDS011;9636;47.382;8.480;2023-05-07T07:34:27;1.63;;;1.25;;
19006;SDS011;9636;47.382;8.480;2023-05-07T07:36:53;1.00;;;1.00;;
19006;SDS011;9636;47.382;8.480;2023-05-07T07:39:21;1.05;;;1.05;;
19006;SDS011;9636;47.382;8.480;2023-05-07T07:41:49;1.10;;;1.10;;
19006;SDS011;9636;47.382;8.480;2023-05-07T07:44:16;1.08;;;1.02;;
19006;SDS011;9636;47.382;8.480;2023-05-07T07:46:42;0.80;;;0.80;;
19006;SDS011;9636;47.382;8.480;2023-05-07T07:49:09;1.08;;;1.08;;
19006;SDS011;9636;47.382;8.480;2023-05-07T07:51:36;1.23;;;1.20;;
19006;SDS011;9636;47.382;8.480;2023-05-07T07:54:03;1.17;;;1.17;;
19006;SDS011;9636;47.382;8.480;2023-05-07T07:56:31;1.52;;;1.10;;
19006;SDS011;9636;47.382;8.480;2023-05-07T07:58:59;0.90;;;0.90;;
19006;SDS011;9636;47.382;8.480;2023-05-07T08:01:26;1.10;;;1.10;;
19006;SDS011;9636;47.382;8.480;2023-05-07T08:03:55;1.10;;;1.00;;
19006;SDS011;9636;47.382;8.480;2023-05-07T08:06:23;1.30;;;1.20;;
19006;SDS011;9636;47.382;8.480;2023-05-07T08:08:50;1.38;;;1.27;;
19006;SDS011;9636;47.382;8.480;2023-05-07T08:11:17;1.02;;;1.02;;
19006;SDS011;9636;47.382;8.480;2023-05-07T08:13:45;0.90;;;0.90;;
19006;SDS011;9636;47.382;8.480;2023-05-07T08:16:14;0.90;;;0.90;;
19006;SDS011;9636;47.382;8.480;2023-05-07T08:18:40;1.17;;;1.17;;
19006;SDS011;9636;47.382;8.480;2023-05-07T08:21:07;1.10;;;1.10;;
19006;SDS011;9636;47.382;8.480;2023-05-07T08:23:35;0.95;;;0.95;;
19006;SDS011;9636;47.382;8.480;2023-05-07T08:26:01;0.95;;;0.95;;
19006;SDS011;9636;47.382;8.480;2023-05-07T08:28:28;1.00;;;1.00;;
19006;SDS011;9636;47.382;8.480;2023-05-07T08:30:55;1.00;;;1.00;;
19006;SDS011;9636;47.382;8.480;2023-05-07T08:33:26;1.45;;;1.10;;
19006;SDS011;9636;47.382;8.480;2023-05-07T08:35:53;1.00;;;1.00;;
19006;SDS011;9636;47.382;8.480;2023-05-07T08:38:20;2.25;;;1.10;;
19006;SDS011;9636;47.382;8.480;2023-05-07T08:40:47;1.10;;;0.98;;
19006;SDS011;9636;47.382;8.480;2023-05-07T08:43:14;0.85;;;0.85;;
19006;SDS011;9636;47.382;8.480;2023-05-07T08:45:41;1.02;;;1.02;;
19006;SDS011;9636;47.382;8.480;2023-05-07T08:48:08;1.23;;;1.00;;
19006;SDS011;9636;47.382;8.480;2023-05-07T08:50:41;1.08;;;1.00;;
19006;SDS011;9636;47.382;8.480;2023-05-07T08:53:08;1.00;;;1.00;;
19006;SDS011;9636;47.382;8.480;2023-05-07T08:55:35;1.10;;;1.00;;
19006;SDS011;9636;47.382;8.480;2023-05-07T08:58:02;0.90;;;0.90;;
19006;SDS011;9636;47.382;8.480;2023-05-07T09:00:29;1.00;;;1.00;;
19006;SDS011;9636;47.382;8.480;2023-05-07T09:02:56;1.17;;;1.17;;
19006;SDS011;9636;47.382;8.480;2023-05-07T09:08:03;1.25;;;1.02;;
19006;SDS011;9636;47.382;8.480;2023-05-07T09:10:32;0.95;;;0.95;;
19006;SDS011;9636;47.382;8.480;2023-05-07T09:12:59;1.00;;;1.00;;
19006;SDS011;9636;47.382;8.480;2023-05-07T09:15:26;0.90;;;0.90;;
19006;SDS011;9636;47.382;8.480;2023-05-07T09:17:54;1.05;;;0.98;;
19006;SDS011;9636;47.382;8.480;2023-05-07T09:20:25;1.00;;;1.00;;
19006;SDS011;9636;47.382;8.480;2023-05-07T09:22:54;1.00;;;1.00;;
19006;SDS011;9636;47.382;8.480;2023-05-07T09:25:28;0.85;;;0.85;;
19006;SDS011;9636;47.382;8.480;2023-05-07T09:27:56;1.00;;;1.00;;
19006;SDS011;9636;47.382;8.480;2023-05-07T09:30:26;1.00;;;1.00;;
19006;SDS011;9636;47.382;8.480;2023-05-07T09:32:54;1.10;;;1.10;;
19006;SDS011;9636;47.382;8.480;2023-05-07T09:35:21;1.20;;;1.10;;
19006;SDS011;9636;47.382;8.480;2023-05-07T09:37:49;1.20;;;1.08;;
19006;SDS011;9636;47.382;8.480;2023-05-07T09:40:20;1.02;;;1.02;;
19006;SDS011;9636;47.382;8.480;2023-05-07T09:42:49;3.35;;;2.20;;
19006;SDS011;9636;47.382;8.480;2023-05-07T09:45:16;4.88;;;2.35;;
19006;SDS011;9636;47.382;8.480;2023-05-07T09:47:48;6.00;;;2.15;;
19006;SDS011;9636;47.382;8.480;2023-05-07T09:50:19;4.25;;;2.38;;
19006;SDS011;9636;47.382;8.480;2023-05-07T09:52:50;7.80;;;2.85;;
19006;SDS011;9636;47.382;8.480;2023-05-07T09:55:18;5.07;;;2.50;;
19006;SDS011;9636;47.382;8.480;2023-05-07T09:57:45;8.00;;;2.38;;
19006;SDS011;9636;47.382;8.480;2023-05-07T10:00:15;3.72;;;2.83;;
19006;SDS011;9636;47.382;8.480;2023-05-07T10:02:43;6.30;;;2.78;;
19006;SDS011;9636;47.382;8.480;2023-05-07T10:05:14;4.53;;;2.47;;
19006;SDS011;9636;47.382;8.480;2023-05-07T10:07:41;4.03;;;2.80;;
19006;SDS011;9636;47.382;8.480;2023-05-07T10:10:08;4.13;;;2.65;;
19006;SDS011;9636;47.382;8.480;2023-05-07T10:12:36;2.90;;;2.70;;
19006;SDS011;9636;47.382;8.480;2023-05-07T10:15:05;3.40;;;3.10;;
19006;SDS011;9636;47.382;8.480;2023-05-07T10:17:35;3.25;;;2.67;;
19006;SDS011;9636;47.382;8.480;2023-05-07T10:20:03;3.53;;;2.80;;
19006;SDS011;9636;47.382;8.480;2023-05-07T10:22:32;3.28;;;3.08;;
19006;SDS011;9636;47.382;8.480;2023-05-07T10:25:04;3.50;;;2.92;;
19006;SDS011;9636;47.382;8.480;2023-05-07T10:27:36;4.57;;;3.45;;
19006;SDS011;9636;47.382;8.480;2023-05-07T10:30:06;4.15;;;3.25;;
19006;SDS011;9636;47.382;8.480;2023-05-07T10:32:40;2.95;;;2.75;;
19006;SDS011;9636;47.382;8.480;2023-05-07T10:35:14;2.95;;;2.65;;
19006;SDS011;9636;47.382;8.480;2023-05-07T10:37:44;3.53;;;3.00;;
19006;SDS011;9636;47.382;8.480;2023-05-07T10:40:12;2.95;;;2.67;;
19006;SDS011;9636;47.382;8.480;2023-05-07T10:42:49;3.30;;;2.90;;
19006;SDS011;9636;47.382;8.480;2023-05-07T10:45:20;2.97;;;2.78;;
19006;SDS011;9636;47.382;8.480;2023-05-07T10:48:08;3.30;;;3.00;;
19006;SDS011;9636;47.382;8.480;2023-05-07T10:50:36;3.20;;;2.90;;
19006;SDS011;9636;47.382;8.480;2023-05-07T10:53:23;3.42;;;3.10;;
19006;SDS011;9636;47.382;8.480;2023-05-07T10:58:55;4.95;;;3.10;;
19006;SDS011;9636;47.382;8.480;2023-05-07T11:01:50;3.30;;;3.00;;
19006;SDS011;9636;47.382;8.480;2023-05-07T11:04:20;4.85;;;2.70;;
19006;SDS011;9636;47.382;8.480;2023-05-07T11:10:04;3.85;;;2.85;;
19006;SDS011;9636;47.382;8.480;2023-05-07T11:15:34;4.72;;;2.90;;
19006;SDS011;9636;47.382;8.480;2023-05-07T11:18:09;6.43;;;3.20;;
19006;SDS011;9636;47.382;8.480;2023-05-07T11:20:48;4.30;;;3.10;;
19006;SDS011;9636;47.382;8.480;2023-05-07T11:26:45;4.80;;;3.05;;
19006;SDS011;9636;47.382;8.480;2023-05-07T11:29:14;3.85;;;3.40;;
19006;SDS011;9636;47.382;8.480;2023-05-07T11:31:42;3.78;;;3.20;;
19006;SDS011;9636;47.382;8.480;2023-05-07T11:34:09;5.75;;;3.40;;
19006;SDS011;9636;47.382;8.480;2023-05-07T11:36:42;4.80;;;3.47;;
19006;SDS011;9636;47.382;8.480;2023-05-07T11:39:25;4.07;;;3.15;;
19006;SDS011;9636;47.382;8.480;2023-05-07T11:41:56;4.00;;;3.42;;
19006;SDS011;9636;47.382;8.480;2023-05-07T11:44:23;4.07;;;3.40;;
19006;SDS011;9636;47.382;8.480;2023-05-07T11:46:50;3.95;;;3.65;;
19006;SDS011;9636;47.382;8.480;2023-05-07T11:49:17;4.85;;;3.72;;
19006;SDS011;9636;47.382;8.480;2023-05-07T11:51:46;4.05;;;3.65;;
19006;SDS011;9636;47.382;8.480;2023-05-07T11:54:15;4.18;;;3.67;;
19006;SDS011;9636;47.382;8.480;2023-05-07T11:56:43;5.93;;;3.05;;
19006;SDS011;9636;47.382;8.480;2023-05-07T11:59:11;3.35;;;2.97;;
19006;SDS011;9636;47.382;8.480;2023-05-07T12:01:38;4.50;;;3.33;;
19006;SDS011;9636;47.382;8.480;2023-05-07T12:04:04;9.07;;;3.63;;
19006;SDS011;9636;47.382;8.480;2023-05-07T12:06:35;5.55;;;3.05;;
19006;SDS011;9636;47.382;8.480;2023-05-07T12:09:04;3.80;;;3.40;;
19006;SDS011;9636;47.382;8.480;2023-05-07T12:11:36;4.90;;;3.58;;
19006;SDS011;9636;47.382;8.480;2023-05-07T12:14:04;4.82;;;3.40;;
19006;SDS011;9636;47.382;8.480;2023-05-07T12:16:32;4.35;;;3.55;;
19006;SDS011;9636;47.382;8.480;2023-05-07T12:18:59;3.88;;;3.22;;
19006;SDS011;9636;47.382;8.480;2023-05-07T12:21:26;3.78;;;3.47;;
19006;SDS011;9636;47.382;8.480;2023-05-07T12:23:53;4.65;;;3.60;;
19006;SDS011;9636;47.382;8.480;2023-05-07T12:26:21;5.32;;;3.60;;
19006;SDS011;9636;47.382;8.480;2023-05-07T12:28:49;4.78;;;3.55;;
19006;SDS011;9636;47.382;8.480;2023-05-07T12:31:16;4.82;;;3.55;;
19006;SDS011;9636;47.382;8.480;2023-05-07T12:33:43;4.18;;;3.75;;
19006;SDS011;9636;47.382;8.480;2023-05-07T12:36:12;5.20;;;3.70;;
19006;SDS011;9636;47.382;8.480;2023-05-07T12:38:39;3.55;;;3.25;;
19006;SDS011;9636;47.382;8.480;2023-05-07T12:41:07;4.75;;;3.85;;
19006;SDS011;9636;47.382;8.480;2023-05-07T12:43:36;5.00;;;3.83;;
19006;SDS011;9636;47.382;8.480;2023-05-07T12:46:04;4.97;;;3.63;;
19006;SDS011;9636;47.382;8.480;2023-05-07T12:48:32;3.80;;;3.50;;
19006;SDS011;9636;47.382;8.480;2023-05-07T12:50:59;4.55;;;3.83;;
19006;SDS011;9636;47.382;8.480;2023-05-07T12:53:27;4.88;;;3.90;;
19006;SDS011;9636;47.382;8.480;2023-05-07T12:55:55;6.30;;;4.13;;
19006;SDS011;9636;47.382;8.480;2023-05-07T12:58:24;4.00;;;3.70;;
19006;SDS011;9636;47.382;8.480;2023-05-07T13:00:53;4.93;;;3.92;;
19006;SDS011;9636;47.382;8.480;2023-05-07T13:03:24;4.20;;;3.70;;
19006;SDS011;9636;47.382;8.480;2023-05-07T13:05:51;3.47;;;3.10;;
19006;SDS011;9636;47.382;8.480;2023-05-07T13:08:23;3.97;;;3.03;;
19006;SDS011;9636;47.382;8.480;2023-05-07T13:10:51;5.28;;;3.13;;
19006;SDS011;9636;47.382;8.480;2023-05-07T13:13:18;3.78;;;3.47;;
19006;SDS011;9636;47.382;8.480;2023-05-07T13:15:45;4.47;;;3.40;;
19006;SDS011;9636;47.382;8.480;2023-05-07T13:18:13;3.70;;;3.35;;
19006;SDS011;9636;47.382;8.480;2023-05-07T13:20:40;3.25;;;2.83;;
19006;SDS011;9636;47.382;8.480;2023-05-07T13:23:07;4.50;;;3.00;;
19006;SDS011;9636;47.382;8.480;2023-05-07T13:25:34;3.47;;;3.17;;
19006;SDS011;9636;47.382;8.480;2023-05-07T13:28:00;3.80;;;3.00;;
19006;SDS011;9636;47.382;8.480;2023-05-07T13:30:27;5.30;;;3.30;;
19006;SDS011;9636;47.382;8.480;2023-05-07T13:32:55;4.53;;;3.40;;
19006;SDS011;9636;47.382;8.480;2023-05-07T13:35:23;3.40;;;3.05;;
19006;SDS011;9636;47.382;8.480;2023-05-07T13:37:50;4.72;;;2.92;;
19006;SDS011;9636;47.382;8.480;2023-05-07T13:40:18;2.97;;;2.78;;
19006;SDS011;9636;47.382;8.480;2023-05-07T13:42:44;3.05;;;2.83;;
19006;SDS011;9636;47.382;8.480;2023-05-07T13:45:11;3.60;;;3.05;;
19006;SDS011;9636;47.382;8.480;2023-05-07T13:47:39;5.65;;;3.20;;
19006;SDS011;9636;47.382;8.480;2023-05-07T13:50:12;3.40;;;3.10;;
19006;SDS011;9636;47.382;8.480;2023-05-07T13:52:41;4.90;;;2.80;;
19006;SDS011;9636;47.382;8.480;2023-05-07T13:55:12;3.50;;;3.20;;
19006;SDS011;9636;47.382;8.480;2023-05-07T13:57:39;3.97;;;2.70;;
19006;SDS011;9636;47.382;8.480;2023-05-07T14:00:06;2.80;;;2.60;;
19006;SDS011;9636;47.382;8.480;2023-05-07T14:02:34;2.92;;;2.63;;
19006;SDS011;9636;47.382;8.480;2023-05-07T14:05:01;4.97;;;2.80;;
19006;SDS011;9636;47.382;8.480;2023-05-07T14:07:27;5.03;;;2.58;;
19006;SDS011;9636;47.382;8.480;2023-05-07T14:09:56;3.30;;;2.60;;
19006;SDS011;9636;47.382;8.480;2023-05-07T14:12:23;2.63;;;2.23;;
19006;SDS011;9636;47.382;8.480;2023-05-07T14:14:50;3.13;;;2.22;;
19006;SDS011;9636;47.382;8.480;2023-05-07T14:17:17;4.40;;;2.58;;
19006;SDS011;9636;47.382;8.480;2023-05-07T14:19:45;3.42;;;2.90;;
19006;SDS011;9636;47.382;8.480;2023-05-07T14:22:12;3.75;;;2.85;;
19006;SDS011;9636;47.382;8.480;2023-05-07T14:24:40;3.65;;;2.92;;
19006;SDS011;9636;47.382;8.480;2023-05-07T14:27:08;8.38;;;3.05;;
19006;SDS011;9636;47.382;8.480;2023-05-07T14:29:35;11.15;;;3.20;;
19006;SDS011;9636;47.382;8.480;2023-05-07T14:32:02;11.90;;;3.20;;
19006;SDS011;9636;47.382;8.480;2023-05-07T14:34:29;7.90;;;3.17;;
19006;SDS011;9636;47.382;8.480;2023-05-07T14:36:55;9.10;;;2.95;;
19006;SDS011;9636;47.382;8.480;2023-05-07T14:39:22;13.48;;;3.13;;
19006;SDS011;9636;47.382;8.480;2023-05-07T14:41:50;10.15;;;3.10;;
19006;SDS011;9636;47.382;8.480;2023-05-07T14:44:21;7.20;;;2.80;;
19006;SDS011;9636;47.382;8.480;2023-05-07T14:46:47;7.70;;;3.08;;
19006;SDS011;9636;47.382;8.480;2023-05-07T14:49:14;6.40;;;2.88;;
19006;SDS011;9636;47.382;8.480;2023-05-07T14:51:42;6.43;;;3.30;;
19006;SDS011;9636;47.382;8.480;2023-05-07T14:54:10;10.15;;;3.00;;
19006;SDS011;9636;47.382;8.480;2023-05-07T14:56:37;5.45;;;2.60;;
19006;SDS011;9636;47.382;8.480;2023-05-07T14:59:04;8.38;;;3.10;;
19006;SDS011;9636;47.382;8.480;2023-05-07T15:01:32;4.95;;;2.70;;
19006;SDS011;9636;47.382;8.480;2023-05-07T15:04:00;4.22;;;3.03;;
19006;SDS011;9636;47.382;8.480;2023-05-07T15:06:26;6.18;;;2.75;;
19006;SDS011;9636;47.382;8.480;2023-05-07T15:08:54;5.57;;;2.90;;
19006;SDS011;9636;47.382;8.480;2023-05-07T15:11:21;4.38;;;3.00;;
19006;SDS011;9636;47.382;8.480;2023-05-07T15:13:48;4.43;;;2.88;;
19006;SDS011;9636;47.382;8.480;2023-05-07T15:16:15;5.75;;;3.10;;
19006;SDS011;9636;47.382;8.480;2023-05-07T15:18:43;5.50;;;2.70;;